sensor_id;sensor_type;location;lat;lon;timestamp;pressure;altitude;pressure_sealevel;temperature;humidity
43691;BME280;29293;52.190;21.226;2023-05-07T00:02:06;100956.89;;;4.54;100.00
43691;BME280;29293;52.190;21.226;2023-05-07T00:17:13;100966.30;;;4.46;100.00
43691;BME280;29293;52.190;21.226;2023-05-07T00:32:19;100972.37;;;4.39;100.00
43691;BME280;29293;52.190;21.226;2023-05-07T00:47:26;100976.76;;;4.36;100.00
43691;BME280;29293;52.190;21.226;2023-05-07T01:02:43;100984.23;;;4.30;100.00
43691;BME280;29293;52.190;21.226;2023-05-07T01:17:54;100984.86;;;4.22;100.00
43691;BME280;29293;52.190;21.226;2023-05-07T01:33:06;100990.48;;;4.16;100.00
43691;BME280;29293;52.190;21.226;2023-05-07T01:48:16;101004.42;;;4.17;100.00
43691;BME280;29293;52.190;21.226;2023-05-07T02:03:24;101001.16;;;4.15;100.00
43691;BME280;29293;52.190;21.226;2023-05-07T02:18:31;100995.84;;;4.12;100.00
43691;BME280;29293;52.190;21.226;2023-05-07T02:33:39;101002.77;;;4.13;100.00
43691;BME280;29293;52.190;21.226;2023-05-07T02:48:48;101014.14;;;4.14;100.00
43691;BME280;29293;52.190;21.226;2023-05-07T03:03:55;101004.05;;;4.15;100.00
43691;BME280;29293;52.190;21.226;2023-05-07T03:19:02;101015.19;;;4.17;100.00
43691;BME280;29293;52.190;21.226;2023-05-07T03:34:09;101032.44;;;4.18;100.00
43691;BME280;29293;52.190;21.226;2023-05-07T03:49:16;101049.01;;;4.22;100.00
43691;BME280;29293;52.190;21.226;2023-05-07T04:04:23;101060.38;;;4.25;100.00
43691;BME280;29293;52.190;21.226;2023-05-07T04:19:32;101078.23;;;4.26;100.00
43691;BME280;29293;52.190;21.226;2023-05-07T04:34:40;101087.33;;;4.29;100.00
43691;BME280;29293;52.190;21.226;2023-05-07T04:49:47;101098.00;;;4.33;100.00
43691;BME280;29293;52.190;21.226;2023-05-07T05:04:55;101110.23;;;4.43;100.00
43691;BME280;29293;52.190;21.226;2023-05-07T05:20:02;101130.98;;;4.55;100.00
43691;BME280;29293;52.190;21.226;2023-05-07T05:35:10;101143.50;;;4.72;100.00
43691;BME280;29293;52.190;21.226;2023-05-07T05:50:19;101151.44;;;5.05;100.00
43691;BME280;29293;52.190;21.226;2023-05-07T06:05:37;101155.52;;;5.35;100.00
43691;BME280;29293;52.190;21.226;2023-05-07T06:20:44;101166.52;;;5.70;100.00
43691;BME280;29293;52.190;21.226;2023-05-07T06:35:51;101177.75;;;5.97;100.00
43691;BME280;29293;52.190;21.226;2023-05-07T06:50:58;101179.61;;;6.22;100.00
43691;BME280;29293;52.190;21.226;2023-05-07T07:06:05;101197.30;;;6.26;100.00
43691;BME280;29293;52.190;21.226;2023-05-07T07:21:13;101216.52;;;6.19;100.00
43691;BME280;29293;52.190;21.226;2023-05-07T07:52:20;101234.61;;;6.71;100.00
43691;BME280;29293;52.190;21.226;2023-05-07T08:07:29;101237.66;;;7.38;100.00
43691;BME280;29293;52.190;21.226;2023-05-07T08:22:39;101245.36;;;7.65;100.00
43691;BME280;29293;52.190;21.226;2023-05-07T08:37:46;101258.77;;;7.60;100.00
43691;BME280;29293;52.190;21.226;2023-05-07T08:52:52;101262.95;;;7.78;100.00
43691;BME280;29293;52.190;21.226;2023-05-07T09:23:11;101287.00;;;8.34;100.00
43691;BME280;29293;52.190;21.226;2023-05-07T09:38:25;101294.77;;;8.67;100.00
43691;BME280;29293;52.190;21.226;2023-05-07T09:53:35;101314.84;;;8.52;100.00
43691;BME280;29293;52.190;21.226;2023-05-07T10:08:49;101320.91;;;8.69;100.00
43691;BME280;29293;52.190;21.226;2023-05-07T10:24:05;101329.76;;;8.75;100.00
43691;BME280;29293;52.190;21.226;2023-05-07T10:39:14;101348.20;;;8.33;100.00
43691;BME280;29293;52.190;21.226;2023-05-07T10:54:24;101353.31;;;8.22;100.00
43691;BME280;29293;52.190;21.226;2023-05-07T11:25:19;101370.42;;;8.62;100.00
43691;BME280;29293;52.190;21.226;2023-05-07T11:40:50;101374.67;;;8.97;100.00
43691;BME280;29293;52.190;21.226;2023-05-07T11:55:57;101372.59;;;9.59;100.00
43691;BME280;29293;52.190;21.226;2023-05-07T12:11:04;101385.41;;;9.59;100.00
43691;BME280;29293;52.190;21.226;2023-05-07T12:26:13;101389.80;;;9.76;100.00
43691;BME280;29293;52.190;21.226;2023-05-07T12:41:23;101392.31;;;10.58;100.00
43691;BME280;29293;52.190;21.226;2023-05-07T12:56:37;101397.17;;;10.03;100.00
43691;BME280;29293;52.190;21.226;2023-05-07T13:11:54;101404.55;;;9.90;100.00
43691;BME280;29293;52.190;21.226;2023-05-07T13:27:24;101405.70;;;10.03;100.00
43691;BME280;29293;52.190;21.226;2023-05-07T13:42:36;101400.46;;;10.44;100.00
43691;BME280;29293;52.190;21.226;2023-05-07T13:57:44;101391.24;;;10.89;100.00
43691;BME280;29293;52.190;21.226;2023-05-07T14:12:51;101389.04;;;11.31;100.00
43691;BME280;29293;52.190;21.226;2023-05-07T14:27:59;101403.83;;;11.15;100.00
43691;BME280;29293;52.190;21.226;2023-05-07T14:43:06;101404.46;;;11.45;100.00
43691;BME280;29293;52.190;21.226;2023-05-07T14:58:16;101404.55;;;11.68;100.00
43691;BME280;29293;52.190;21.226;2023-05-07T15:13:26;101411.02;;;11.37;100.00
43691;BME280;29293;52.190;21.226;2023-05-07T15:28:35;101407.77;;;11.42;100.00
43691;BME280;29293;52.190;21.226;2023-05-07T15:43:46;101416.15;;;11.08;100.00
43691;BME280;29293;52.190;21.226;2023-05-07T15:58:54;101415.80;;;10.66;100.00
43691;BME280;29293;52.190;21.226;2023-05-07T16:14:02;101420.40;;;10.38;100.00
43691;BME280;29293;52.190;21.226;2023-05-07T16:29:09;101417.88;;;10.25;100.00
43691;BME280;29293;52.190;21.226;2023-05-07T16:44:18;101415.22;;;10.09;100.00
43691;BME280;29293;52.190;21.226;2023-05-07T16:59:25;101424.84;;;9.84;100.00
43691;BME280;29293;52.190;21.226;2023-05-07T17:14:35;101433.86;;;9.57;100.00
43691;BME280;29293;52.190;21.226;2023-05-07T17:29:42;101446.48;;;9.17;100.00
43691;BME280;29293;52.190;21.226;2023-05-07T17:44:49;101462.38;;;8.79;100.00
43691;BME280;29293;52.190;21.226;2023-05-07T17:59:56;101475.87;;;8.39;100.00
43691;BME280;29293;52.190;21.226;2023-05-07T18:15:03;101491.66;;;7.90;100.00
43691;BME280;29293;52.190;21.226;2023-05-07T18:30:11;101514.03;;;7.32;100.00
43691;BME280;29293;52.190;21.226;2023-05-07T18:45:19;101527.17;;;6.66;100.00
43691;BME280;29293;52.190;21.226;2023-05-07T19:00:27;101541.20;;;5.97;100.00
43691;BME280;29293;52.190;21.226;2023-05-07T19:15:34;101558.21;;;5.45;100.00
43691;BME280;29293;52.190;21.226;2023-05-07T19:30:41;101575.55;;;4.97;100.00
43691;BME280;29293;52.190;21.226;2023-05-07T19:45:48;101593.96;;;4.58;100.00
43691;BME280;29293;52.190;21.226;2023-05-07T20:00:57;101606.42;;;4.18;100.00
43691;BME280;29293;52.190;21.226;2023-05-07T20:16:06;101617.58;;;3.83;100.00
43691;BME280;29293;52.190;21.226;2023-05-07T20:31:13;101629.10;;;3.52;100.00
43691;BME280;29293;52.190;21.226;2023-05-07T20:46:20;101637.73;;;3.24;100.00
43691;BME280;29293;52.190;21.226;2023-05-07T21:01:27;101643.84;;;2.95;100.00
43691;BME280;29293;52.190;21.226;2023-05-07T21:16:34;101662.97;;;2.69;100.00
43691;BME280;29293;52.190;21.226;2023-05-07T21:31:41;101682.20;;;2.44;100.00
43691;BME280;29293;52.190;21.226;2023-05-07T21:46:48;101701.29;;;2.23;100.00
43691;BME280;29293;52.190;21.226;2023-05-07T22:01:55;101710.73;;;2.02;100.00
43691;BME280;29293;52.190;21.226;2023-05-07T22:17:02;101719.55;;;1.79;100.00
43691;BME280;29293;52.190;21.226;2023-05-07T22:32:09;101718.63;;;1.51;100.00
43691;BME280;29293;52.190;21.226;2023-05-07T22:47:16;101721.95;;;1.30;100.00
43691;BME280;29293;52.190;21.226;2023-05-07T23:02:23;101723.63;;;1.02;100.00
43691;BME280;29293;52.190;21.226;2023-05-07T23:17:32;101721.93;;;0.80;100.00
43691;BME280;29293;52.190;21.226;2023-05-07T23:32:40;101724.75;;;0.60;100.00
43691;BME280;29293;52.190;21.226;2023-05-07T23:47:46;101721.06;;;0.42;100.00
